createdAt,value
2017-12-26T15:42:54.552Z,994.91
2017-12-26T15:44:55.916Z,994.96
2017-12-26T15:46:57.430Z,994.93
2017-12-26T15:48:58.826Z,994.89
2017-12-26T15:51:00.270Z,994.94
2017-12-26T15:53:01.686Z,994.90
2017-12-26T15:55:03.114Z,994.91
2017-12-26T15:57:04.531Z,994.89
2017-12-26T15:59:05.944Z,994.83
2017-12-26T16:01:07.358Z,994.85
2017-12-26T16:03:08.758Z,994.84
2017-12-26T16:05:10.360Z,994.80
2017-12-26T16:07:11.791Z,994.81
2017-12-26T16:09:13.198Z,994.77
2017-12-26T16:11:14.737Z,994.74
2017-12-26T16:13:16.200Z,994.69
2017-12-26T16:15:17.582Z,994.74
2017-12-26T16:17:19.496Z,994.67
2017-12-26T16:19:21.274Z,994.72
2017-12-26T16:21:23.175Z,994.70
2017-12-26T16:23:24.839Z,994.66
2017-12-26T16:25:26.308Z,994.60
2017-12-26T16:27:27.921Z,994.64
2017-12-26T16:29:29.542Z,994.62
2017-12-26T16:31:31.229Z,994.65
2017-12-26T16:33:32.899Z,994.60
2017-12-26T16:35:34.721Z,994.65
2017-12-26T16:37:36.455Z,994.59
2017-12-26T16:39:38.125Z,994.64
2017-12-26T16:41:39.576Z,994.61
2017-12-26T16:43:41.038Z,994.64
2017-12-26T16:45:42.761Z,994.60
2017-12-26T16:47:44.528Z,994.63
2017-12-26T16:49:45.962Z,994.69
2017-12-26T16:51:47.398Z,994.69
2017-12-26T16:53:49.788Z,994.78
2017-12-26T16:55:51.293Z,994.76
2017-12-26T16:57:52.717Z,994.71
2017-12-26T16:59:54.178Z,994.63
2017-12-26T17:01:55.800Z,994.65
2017-12-26T17:03:57.441Z,994.69
2017-12-26T17:05:59.240Z,994.65
2017-12-26T17:08:00.684Z,994.66
2017-12-26T17:10:02.106Z,994.70
2017-12-26T17:12:03.511Z,994.71
2017-12-26T17:14:04.966Z,994.67
2017-12-26T17:16:06.364Z,994.75
2017-12-26T17:18:07.836Z,994.72
2017-12-26T17:20:09.351Z,994.72
2017-12-26T17:22:11.135Z,994.72
2017-12-26T17:24:12.700Z,994.75
2017-12-26T17:26:14.568Z,994.79
2017-12-26T17:28:16.197Z,994.78
2017-12-26T17:30:17.878Z,994.68
2017-12-26T17:32:19.286Z,994.77
2017-12-26T17:34:20.695Z,994.77
2017-12-26T17:36:22.115Z,994.65
2017-12-26T17:38:23.623Z,994.63
2017-12-26T17:40:25.259Z,994.66
2017-12-26T17:42:27.028Z,994.63
2017-12-26T17:44:28.661Z,994.59
2017-12-26T17:46:30.289Z,994.56
2017-12-26T17:48:31.921Z,994.40
2017-12-26T17:50:33.695Z,994.44
2017-12-26T17:52:35.405Z,994.53
2017-12-26T17:54:37.115Z,994.50
2017-12-26T17:56:38.572Z,994.51
2017-12-26T17:58:40.200Z,994.45
2017-12-26T18:00:41.901Z,994.45
2017-12-26T18:02:43.650Z,994.41
2017-12-26T18:04:45.455Z,994.47
2017-12-26T18:06:47.241Z,994.37
2017-12-26T18:08:48.705Z,994.43
2017-12-26T18:10:50.149Z,994.29
2017-12-26T18:12:51.914Z,994.30
2017-12-26T18:14:53.597Z,994.27
2017-12-26T18:16:55.265Z,994.22
2017-12-26T18:18:56.724Z,994.20
2017-12-26T18:20:58.456Z,994.24
2017-12-26T18:22:59.901Z,994.17
2017-12-26T18:25:01.389Z,994.15
2017-12-26T18:27:03.065Z,994.08
2017-12-26T18:29:04.900Z,994.05
2017-12-26T18:31:06.569Z,994.07
2017-12-26T18:33:08.244Z,994.11
2017-12-26T18:35:09.889Z,994.09
2017-12-26T18:37:11.374Z,994.06
2017-12-26T18:39:12.810Z,994.05
2017-12-26T18:41:14.458Z,994.03
2017-12-26T18:43:16.236Z,994.09
2017-12-26T18:45:17.959Z,994.05
2017-12-26T18:47:19.419Z,994.04
2017-12-26T18:49:21.154Z,994.01
2017-12-26T18:51:22.863Z,993.96
2017-12-26T18:53:24.331Z,993.95
2017-12-26T18:55:25.960Z,993.92
2017-12-26T18:57:27.827Z,993.89
2017-12-26T18:59:29.525Z,993.86
2017-12-26T19:01:31.227Z,993.86
2017-12-26T19:03:32.662Z,993.84
2017-12-26T19:05:34.092Z,993.86
2017-12-26T19:07:35.595Z,993.85
2017-12-26T19:09:37.027Z,993.80
2017-12-26T19:11:38.448Z,993.76
2017-12-26T19:13:40.155Z,993.77
2017-12-26T19:15:42.064Z,993.68
2017-12-26T19:17:43.540Z,993.66
2017-12-26T19:19:44.969Z,993.62
2017-12-26T19:21:46.660Z,993.57
2017-12-26T19:23:48.499Z,993.51
2017-12-26T19:25:50.265Z,993.52
2017-12-26T19:27:52.244Z,993.50
2017-12-26T19:29:53.682Z,993.47
2017-12-26T19:31:55.118Z,993.43
2017-12-26T19:33:56.580Z,993.47
2017-12-26T19:35:58.029Z,993.40
2017-12-26T19:37:59.469Z,993.44
2017-12-26T19:40:00.903Z,993.34
2017-12-26T19:42:02.358Z,993.28
2017-12-26T19:44:04.020Z,993.30
2017-12-26T19:46:05.505Z,993.28
2017-12-26T19:48:06.980Z,993.23
2017-12-26T19:50:08.489Z,993.23
2017-12-26T19:52:09.902Z,993.22
2017-12-26T19:54:11.331Z,993.17
2017-12-26T19:56:12.815Z,993.13
2017-12-26T19:58:14.237Z,993.07
2017-12-26T20:00:15.675Z,993.08
2017-12-26T20:02:17.144Z,993.06
2017-12-26T20:04:18.570Z,992.99
2017-12-26T20:06:20.101Z,992.99
2017-12-26T20:08:21.658Z,993.01
2017-12-26T20:10:23.108Z,993.02
2017-12-26T20:12:24.732Z,992.96
2017-12-26T20:14:26.382Z,992.93
2017-12-26T20:16:28.055Z,992.92
2017-12-26T20:18:29.631Z,992.83
2017-12-26T20:20:31.186Z,992.83
2017-12-26T20:22:32.852Z,992.79
2017-12-26T20:24:34.529Z,992.80
2017-12-26T20:26:36.171Z,992.71
2017-12-26T20:28:37.850Z,992.70
2017-12-26T20:30:39.444Z,992.67
2017-12-26T20:32:41.111Z,992.64
2017-12-26T20:34:42.871Z,992.58
2017-12-26T20:36:44.479Z,992.56
2017-12-26T20:38:46.147Z,992.52
2017-12-26T20:40:47.796Z,992.52
2017-12-26T20:42:50.077Z,992.49
2017-12-26T20:44:51.784Z,992.45
2017-12-26T20:46:53.253Z,992.39
2017-12-26T20:48:54.945Z,992.39
2017-12-26T20:50:56.598Z,992.37
2017-12-26T20:52:58.414Z,992.35
2017-12-26T20:55:00.175Z,992.30
2017-12-26T20:57:02.024Z,992.19
2017-12-26T20:59:03.589Z,992.11
2017-12-26T21:01:05.239Z,992.13
2017-12-26T21:03:07.051Z,992.08
2017-12-26T21:05:08.905Z,992.01
2017-12-26T21:07:10.720Z,991.98
2017-12-26T21:09:12.412Z,991.89
2017-12-26T21:11:14.251Z,991.90
2017-12-26T21:13:15.735Z,991.89
2017-12-26T21:15:17.552Z,991.89
2017-12-26T21:17:19.854Z,991.84
2017-12-26T21:19:21.553Z,991.77
2017-12-26T21:21:23.214Z,991.80
2017-12-26T21:23:25.046Z,991.75
2017-12-26T21:25:26.678Z,991.74
2017-12-26T21:27:28.296Z,991.68
2017-12-26T21:29:29.951Z,991.69
2017-12-26T21:31:31.593Z,991.68
2017-12-26T21:33:33.028Z,991.64
2017-12-26T21:35:34.523Z,991.67
2017-12-26T21:37:36.179Z,991.61
2017-12-26T21:39:37.970Z,991.54
2017-12-26T21:41:39.435Z,991.48
2017-12-26T21:43:41.107Z,991.46
2017-12-26T21:45:42.809Z,991.45
2017-12-26T21:47:44.545Z,991.48
2017-12-26T21:49:45.998Z,991.45
2017-12-26T21:51:47.649Z,991.34
2017-12-26T21:53:49.893Z,991.34
2017-12-26T21:55:51.373Z,991.33
2017-12-26T21:57:53.154Z,991.39
2017-12-26T21:59:54.808Z,991.30
2017-12-26T22:01:56.598Z,991.24
2017-12-26T22:03:58.067Z,991.23
2017-12-26T22:05:59.492Z,991.18
2017-12-26T22:08:00.954Z,991.17
2017-12-26T22:10:02.561Z,991.12
2017-12-26T22:12:04.339Z,991.11
2017-12-26T22:14:06.017Z,991.11
2017-12-26T22:16:07.868Z,991.01
2017-12-26T22:18:09.538Z,990.94
2017-12-26T22:20:11.352Z,990.91
2017-12-26T22:22:13.154Z,990.90
2017-12-26T22:24:14.969Z,990.85
2017-12-26T22:26:16.422Z,990.80
2017-12-26T22:28:17.894Z,990.81
2017-12-26T22:30:19.564Z,990.79
2017-12-26T22:32:21.051Z,990.84
2017-12-26T22:34:22.591Z,990.86
2017-12-26T22:36:24.025Z,990.75
2017-12-26T22:38:25.465Z,990.72
2017-12-26T22:40:26.986Z,990.63
2017-12-26T22:42:28.616Z,990.54
2017-12-26T22:44:30.250Z,990.47
2017-12-26T22:46:31.716Z,990.45
2017-12-26T22:48:33.341Z,990.43
2017-12-26T22:50:34.995Z,990.34
2017-12-26T22:52:36.401Z,990.31
2017-12-26T22:54:38.174Z,990.28
2017-12-26T22:56:39.748Z,990.25
2017-12-26T22:58:41.385Z,990.18
2017-12-26T23:00:43.069Z,990.15
2017-12-26T23:02:44.736Z,990.08
2017-12-26T23:04:46.141Z,990.08
2017-12-26T23:06:47.555Z,990.09
2017-12-26T23:08:48.990Z,990.07
2017-12-26T23:10:50.451Z,990.02
2017-12-26T23:12:52.054Z,989.99
2017-12-26T23:14:53.740Z,990.03
2017-12-26T23:16:55.548Z,989.95
2017-12-26T23:18:57.193Z,989.97
2017-12-26T23:20:58.605Z,989.86
2017-12-26T23:23:00.021Z,989.81
2017-12-26T23:25:01.426Z,989.73
2017-12-26T23:27:02.839Z,989.66
2017-12-26T23:29:04.277Z,989.60
2017-12-26T23:31:05.665Z,989.56
2017-12-26T23:33:07.067Z,989.49
2017-12-26T23:35:08.485Z,989.46
2017-12-26T23:37:09.972Z,989.42
2017-12-26T23:39:11.516Z,989.34
2017-12-26T23:41:12.986Z,989.31
2017-12-26T23:43:14.783Z,989.27
2017-12-26T23:45:16.230Z,989.22
2017-12-26T23:47:17.689Z,989.08
2017-12-26T23:49:19.163Z,989.04
2017-12-26T23:51:20.932Z,988.96
2017-12-26T23:53:22.783Z,988.91
2017-12-26T23:55:24.439Z,988.88
2017-12-26T23:57:25.945Z,988.83
2017-12-26T23:59:27.417Z,988.75
